Time;durP1;ratioP1;P1;durP2;ratioP2;P2;SDS_P1;SDS_P2;PMS_P1;PMS_P2;Temp;Humidity;BMP_temperature;BMP_pressure;BME280_temperature;BME280_humidity;BME280_pressure;Samples;Min_cycle;Max_cycle;Signal;HPM_P1;HPM_P2
2021/11/06 00:00:13;;;;;;;0.70;0.70;;;6.50;99.90;;;;;;5091035;28;20213;-76
2021/11/06 00:02:40;;;;;;;4.55;1.73;;;6.50;99.90;;;;;;5091041;28;20683;-75
2021/11/06 00:05:11;;;;;;;0.50;0.40;;;6.50;99.90;;;;;;5090761;28;20208;-76
2021/11/06 00:07:38;;;;;;;2.95;1.40;;;6.50;99.90;;;;;;5092569;28;20193;-73
2021/11/06 00:10:07;;;;;;;1.50;1.40;;;6.50;99.90;;;;;;5094768;28;20216;-73
2021/11/06 00:12:34;;;;;;;1.83;1.73;;;6.50;99.90;;;;;;5094834;28;20792;-74
2021/11/06 00:15:01;;;;;;;0.65;0.57;;;6.50;99.90;;;;;;5094714;28;20190;-76
2021/11/06 00:17:29;;;;;;;0.80;0.80;;;6.50;99.90;;;;;;5094968;28;20190;-76
2021/11/06 00:19:56;;;;;;;2.45;2.25;;;6.40;99.90;;;;;;5094099;28;20222;-76
2021/11/06 00:22:23;;;;;;;2.45;1.88;;;6.40;99.90;;;;;;5094420;28;20290;-75
2021/11/06 00:24:50;;;;;;;3.53;3.33;;;6.40;99.90;;;;;;5094485;28;20561;-75
2021/11/06 00:27:16;;;;;;;2.83;1.85;;;6.40;99.90;;;;;;5094764;28;20217;-76
2021/11/06 00:29:43;;;;;;;4.30;2.38;;;6.30;99.90;;;;;;5094743;28;20238;-75
2021/11/06 00:32:10;;;;;;;2.55;1.50;;;6.30;99.90;;;;;;5094044;28;20198;-74
2021/11/06 00:34:38;;;;;;;1.30;1.30;;;6.30;99.90;;;;;;5094245;28;20189;-74
2021/11/06 00:37:05;;;;;;;1.65;1.55;;;6.30;99.90;;;;;;5094623;28;20198;-76
2021/11/06 00:39:33;;;;;;;1.90;1.80;;;6.30;99.90;;;;;;5094043;28;20563;-77
2021/11/06 00:42:00;;;;;;;1.95;1.10;;;6.30;99.90;;;;;;5093958;28;20197;-76
2021/11/06 00:44:28;;;;;;;1.63;1.52;;;6.20;99.90;;;;;;5094122;28;20201;-76
2021/11/06 00:46:55;;;;;;;0.98;0.98;;;6.20;99.90;;;;;;5093935;28;20209;-74
2021/11/06 00:49:21;;;;;;;1.60;1.42;;;6.20;99.90;;;;;;5093362;28;20205;-76
2021/11/06 00:51:50;;;;;;;2.30;1.95;;;6.20;99.90;;;;;;5093383;28;20221;-73
2021/11/06 00:54:17;;;;;;;3.28;3.05;;;6.20;99.90;;;;;;5094251;28;20289;-76
2021/11/06 00:56:44;;;;;;;1.98;1.38;;;6.20;99.90;;;;;;5093864;28;20190;-76
2021/11/06 00:59:11;;;;;;;5.22;2.85;;;6.10;99.90;;;;;;5094160;28;20193;-76
2021/11/06 01:01:38;;;;;;;4.88;3.10;;;6.10;99.90;;;;;;5093149;28;20218;-77
2021/11/06 01:04:05;;;;;;;2.00;1.88;;;6.10;99.90;;;;;;5094040;28;20563;-76
2021/11/06 01:06:31;;;;;;;5.20;2.25;;;6.10;99.90;;;;;;5093538;28;20223;-76
2021/11/06 01:09:00;;;;;;;1.25;1.17;;;6.10;99.90;;;;;;5094174;28;20208;-76
2021/11/06 01:11:27;;;;;;;18.23;5.47;;;6.10;99.90;;;;;;5093343;28;20222;-76
2021/11/06 01:13:53;;;;;;;3.45;3.15;;;6.10;99.90;;;;;;5093540;28;20205;-76
2021/11/06 01:16:20;;;;;;;4.65;4.18;;;6.10;99.90;;;;;;5093354;28;20204;-76
2021/11/06 01:18:47;;;;;;;5.80;4.38;;;6.10;99.90;;;;;;5092518;28;20209;-77
2021/11/06 01:21:13;;;;;;;7.20;3.47;;;6.10;99.90;;;;;;5093089;28;20218;-76
2021/11/06 01:23:41;;;;;;;1.65;1.52;;;6.10;99.90;;;;;;5093359;28;20202;-76
2021/11/06 01:26:09;;;;;;;2.47;2.33;;;6.10;99.90;;;;;;5093634;28;20210;-76
2021/11/06 01:28:36;;;;;;;5.05;3.97;;;6.10;99.90;;;;;;5093415;28;20198;-76
2021/11/06 01:31:03;;;;;;;6.72;3.03;;;6.10;99.90;;;;;;5092740;28;20209;-76
2021/11/06 01:33:29;;;;;;;2.08;1.73;;;6.10;99.90;;;;;;5093165;28;20190;-76
2021/11/06 01:35:56;;;;;;;1.80;1.70;;;6.10;99.90;;;;;;5093338;28;20556;-76
2021/11/06 01:38:23;;;;;;;4.13;3.80;;;6.10;99.90;;;;;;5093048;28;20194;-76
2021/11/06 01:40:50;;;;;;;4.50;1.98;;;6.10;99.90;;;;;;5092524;28;20225;-76
2021/11/06 01:43:18;;;;;;;1.80;1.70;;;6.10;99.90;;;;;;5092830;28;20193;-75
2021/11/06 01:45:45;;;;;;;1.88;1.77;;;6.00;99.90;;;;;;5093313;28;20209;-76
2021/11/06 01:48:12;;;;;;;1.90;1.40;;;6.10;99.90;;;;;;5092069;28;20562;-76
2021/11/06 01:50:38;;;;;;;5.20;4.10;;;6.00;99.90;;;;;;5092984;28;20217;-76
2021/11/06 01:53:05;;;;;;;2.10;1.35;;;6.00;99.90;;;;;;5093017;28;20194;-77
2021/11/06 01:55:32;;;;;;;3.67;3.35;;;6.00;99.90;;;;;;5092549;28;20200;-76
2021/11/06 01:58:00;;;;;;;2.95;2.75;;;6.00;99.90;;;;;;5092511;28;20201;-76
2021/11/06 02:00:29;;;;;;;3.70;3.45;;;6.00;99.90;;;;;;5092425;28;20714;-72
2021/11/06 02:02:56;;;;;;;2.80;2.55;;;6.00;99.90;;;;;;5093241;28;20609;-76
2021/11/06 02:05:23;;;;;;;2.55;2.00;;;6.00;99.90;;;;;;5092646;28;20209;-76
2021/11/06 02:07:50;;;;;;;5.75;2.88;;;6.00;99.90;;;;;;5092484;28;20217;-76
2021/11/06 02:10:18;;;;;;;1.52;1.42;;;6.00;99.90;;;;;;5092157;28;20596;-77
2021/11/06 02:12:45;;;;;;;1.25;1.15;;;5.90;99.90;;;;;;5092666;28;20194;-76
2021/11/06 02:15:15;;;;;;;6.13;4.78;;;5.90;99.90;;;;;;5092582;28;20190;-76
2021/11/06 02:17:45;;;;;;;5.00;4.70;;;5.90;99.90;;;;;;5092224;28;20197;-76
2021/11/06 02:20:12;;;;;;;5.75;3.75;;;5.90;99.90;;;;;;5092091;28;20583;-72
2021/11/06 02:22:42;;;;;;;5.45;2.67;;;5.90;99.90;;;;;;5092722;28;20200;-76
2021/11/06 02:25:10;;;;;;;3.30;2.92;;;5.90;99.90;;;;;;5091978;28;20193;-76
2021/11/06 02:27:37;;;;;;;1.65;1.58;;;5.90;99.90;;;;;;5092175;28;20216;-76
2021/11/06 02:30:05;;;;;;;10.52;3.38;;;5.90;99.90;;;;;;5092050;28;20213;-76
2021/11/06 02:32:32;;;;;;;5.68;3.97;;;5.80;99.90;;;;;;5092259;28;20193;-76
2021/11/06 02:34:59;;;;;;;2.38;2.20;;;5.80;99.90;;;;;;5092273;28;20197;-76
2021/11/06 02:37:26;;;;;;;8.18;3.85;;;5.80;99.90;;;;;;5091884;28;20280;-76
2021/11/06 02:39:54;;;;;;;4.60;3.70;;;5.80;99.90;;;;;;5092146;28;20225;-76
2021/11/06 02:42:21;;;;;;;2.28;2.10;;;5.80;99.90;;;;;;5091768;28;20197;-75
2021/11/06 02:44:48;;;;;;;1.05;1.05;;;5.80;99.90;;;;;;5091834;28;20201;-73
2021/11/06 02:47:15;;;;;;;1.08;0.75;;;5.80;99.90;;;;;;5091695;28;20587;-76
2021/11/06 02:49:42;;;;;;;7.55;2.20;;;5.80;99.90;;;;;;5091459;28;20204;-76
2021/11/06 02:52:09;;;;;;;1.08;0.93;;;5.70;99.90;;;;;;5091831;28;20201;-76
2021/11/06 02:54:36;;;;;;;1.23;1.23;;;5.70;99.90;;;;;;5092083;28;20193;-76
2021/11/06 02:57:04;;;;;;;8.55;4.95;;;5.70;99.90;;;;;;5091818;28;20701;-75
2021/11/06 02:59:31;;;;;;;3.28;2.90;;;5.70;99.90;;;;;;5091594;28;20643;-76
2021/11/06 03:01:58;;;;;;;2.17;2.08;;;5.70;99.90;;;;;;5091331;28;20198;-75
2021/11/06 03:04:25;;;;;;;2.05;1.85;;;5.70;99.90;;;;;;5091664;28;20304;-76
2021/11/06 03:06:51;;;;;;;2.45;2.25;;;5.60;99.90;;;;;;5091461;28;20721;-74
2021/11/06 03:09:18;;;;;;;1.20;1.20;;;5.70;99.90;;;;;;5091771;28;20689;-76
2021/11/06 03:11:45;;;;;;;2.38;2.20;;;5.60;99.90;;;;;;5091284;28;20213;-75
2021/11/06 03:14:13;;;;;;;7.55;2.92;;;5.60;99.90;;;;;;5091485;28;20502;-75
2021/11/06 03:16:42;;;;;;;4.55;3.80;;;5.60;99.90;;;;;;5091714;28;20658;-75
2021/11/06 03:19:08;;;;;;;1.33;1.17;;;5.60;99.90;;;;;;5091502;28;20682;-74
2021/11/06 03:21:35;;;;;;;1.13;1.13;;;5.60;99.90;;;;;;5090778;28;20706;-76
2021/11/06 03:24:02;;;;;;;10.98;3.75;;;5.60;99.90;;;;;;5092017;28;20193;-75
2021/11/06 03:26:29;;;;;;;1.77;1.67;;;5.60;99.90;;;;;;5090958;28;20186;-76
2021/11/06 03:28:55;;;;;;;2.42;2.03;;;5.60;99.90;;;;;;5091627;28;20193;-75
2021/11/06 03:31:24;;;;;;;6.60;3.10;;;5.60;99.90;;;;;;5091236;28;20221;-75
2021/11/06 03:33:50;;;;;;;1.02;1.02;;;5.60;99.90;;;;;;5091747;28;20189;-76
2021/11/06 03:36:18;;;;;;;4.32;3.00;;;5.60;99.90;;;;;;5091017;28;20574;-76
2021/11/06 03:38:45;;;;;;;15.48;5.55;;;5.60;99.90;;;;;;5091838;28;20205;-76
2021/11/06 03:41:12;;;;;;;1.90;1.80;;;5.50;99.90;;;;;;5090895;28;20221;-74
2021/11/06 03:43:39;;;;;;;3.42;2.97;;;5.50;99.90;;;;;;5094968;28;20659;-75
2021/11/06 03:46:06;;;;;;;4.43;0.88;;;5.50;99.90;;;;;;5095710;28;20189;-76
2021/11/06 03:48:35;;;;;;;1.85;1.75;;;5.50;99.90;;;;;;5094788;28;20308;-76
2021/11/06 03:51:02;;;;;;;3.55;3.25;;;5.60;99.90;;;;;;5095035;28;20575;-76
2021/11/06 03:53:29;;;;;;;5.18;3.53;;;5.50;99.90;;;;;;5095967;28;20200;-75
2021/11/06 03:55:56;;;;;;;8.57;1.42;;;5.60;99.90;;;;;;5094966;28;20193;-76
2021/11/06 03:58:23;;;;;;;4.93;4.20;;;5.60;99.90;;;;;;5095432;28;20190;-76
2021/11/06 04:00:50;;;;;;;12.40;3.35;;;5.60;99.90;;;;;;5094936;28;20220;-76
2021/11/06 04:03:17;;;;;;;2.22;1.88;;;5.70;99.90;;;;;;5094836;28;20694;-75
2021/11/06 04:05:45;;;;;;;9.60;3.80;;;5.70;99.90;;;;;;5094977;28;20198;-76
2021/11/06 04:08:12;;;;;;;2.30;1.77;;;5.70;99.90;;;;;;5094879;28;20556;-75
2021/11/06 04:10:38;;;;;;;4.10;3.15;;;5.70;99.90;;;;;;5094284;28;20728;-75
2021/11/06 04:13:05;;;;;;;8.30;4.25;;;5.80;99.90;;;;;;5094708;28;20674;-76
2021/11/06 04:15:32;;;;;;;5.88;5.47;;;5.80;99.90;;;;;;5094694;28;20204;-75
2021/11/06 04:18:00;;;;;;;9.57;3.38;;;5.90;99.90;;;;;;5095003;28;20189;-75
2021/11/06 04:20:27;;;;;;;1.90;0.95;;;5.90;99.90;;;;;;5094698;28;20218;-75
2021/11/06 04:22:55;;;;;;;6.18;3.38;;;5.90;99.90;;;;;;5094622;28;20189;-76
2021/11/06 04:25:22;;;;;;;3.85;3.45;;;5.90;99.90;;;;;;5094499;28;20200;-75
2021/11/06 04:27:48;;;;;;;0.50;0.50;;;6.00;99.90;;;;;;5094424;28;20213;-76
2021/11/06 04:30:15;;;;;;;2.17;1.98;;;6.00;99.90;;;;;;5094449;28;20221;-76
2021/11/06 04:32:42;;;;;;;9.40;4.25;;;6.00;99.90;;;;;;5094680;28;20197;-75
2021/11/06 04:35:10;;;;;;;4.03;2.70;;;6.00;99.90;;;;;;5095083;28;20201;-76
2021/11/06 04:37:37;;;;;;;3.80;3.08;;;6.00;99.90;;;;;;5093963;28;20190;-76
2021/11/06 04:40:08;;;;;;;3.22;2.78;;;6.00;99.90;;;;;;5094099;28;20221;-75
2021/11/06 04:42:35;;;;;;;1.77;1.42;;;6.00;99.90;;;;;;5094372;28;20668;-76
2021/11/06 04:45:02;;;;;;;9.70;6.47;;;6.00;99.90;;;;;;5094625;28;20189;-76
2021/11/06 04:47:28;;;;;;;4.05;3.75;;;6.10;99.90;;;;;;5093147;28;20224;-76
2021/11/06 04:49:56;;;;;;;3.00;2.17;;;6.00;99.90;;;;;;5094256;28;20214;-75
2021/11/06 04:52:23;;;;;;;3.03;1.88;;;6.00;99.90;;;;;;5094001;28;20224;-76
2021/11/06 04:54:51;;;;;;;2.53;1.17;;;6.10;99.90;;;;;;5092795;28;20282;-75
2021/11/06 04:57:19;;;;;;;9.52;3.72;;;6.00;99.90;;;;;;5094345;28;20193;-76
2021/11/06 04:59:46;;;;;;;18.17;7.68;;;6.10;99.90;;;;;;5093573;28;20190;-76
2021/11/06 05:02:13;;;;;;;1.15;1.15;;;6.00;99.90;;;;;;5093493;28;20201;-74
2021/11/06 05:04:40;;;;;;;5.30;4.03;;;6.00;99.90;;;;;;5093959;28;20197;-75
2021/11/06 05:07:06;;;;;;;1.30;1.10;;;6.00;99.90;;;;;;5093484;28;20226;-75
2021/11/06 05:09:34;;;;;;;6.20;3.53;;;6.00;99.90;;;;;;5094027;28;20566;-75
2021/11/06 05:12:00;;;;;;;8.25;2.35;;;6.00;99.90;;;;;;5093142;28;20202;-75
2021/11/06 05:14:29;;;;;;;12.15;5.07;;;6.00;99.90;;;;;;5093657;28;20204;-76
2021/11/06 05:16:55;;;;;;;2.63;2.42;;;5.90;99.90;;;;;;5094109;28;20200;-75
2021/11/06 05:19:22;;;;;;;5.40;3.78;;;5.90;99.90;;;;;;5093652;28;20193;-76
2021/11/06 05:21:49;;;;;;;5.55;4.63;;;5.90;99.90;;;;;;5092875;28;20590;-76
2021/11/06 05:24:16;;;;;;;1.75;1.63;;;5.90;99.90;;;;;;5093766;28;20574;-74
2021/11/06 05:26:43;;;;;;;3.55;1.35;;;5.90;99.90;;;;;;5093384;28;20205;-76
2021/11/06 05:29:12;;;;;;;1.55;1.45;;;5.90;99.90;;;;;;5093501;28;20209;-77
2021/11/06 05:31:41;;;;;;;4.85;4.45;;;5.80;99.90;;;;;;5092876;28;20309;-76
2021/11/06 05:34:08;;;;;;;3.00;2.40;;;5.80;99.90;;;;;;5093206;28;20288;-75
2021/11/06 05:36:35;;;;;;;2.25;2.15;;;5.80;99.90;;;;;;5093470;28;20198;-75
2021/11/06 05:39:02;;;;;;;3.47;3.17;;;5.80;99.90;;;;;;5093386;28;20190;-75
2021/11/06 05:41:29;;;;;;;11.55;2.72;;;5.80;99.90;;;;;;5093510;28;20226;-76
2021/11/06 05:43:56;;;;;;;1.13;1.13;;;5.80;99.90;;;;;;5093045;28;20566;-75
2021/11/06 05:46:23;;;;;;;3.30;3.08;;;5.70;99.90;;;;;;5093135;28;20672;-76
2021/11/06 05:48:51;;;;;;;4.70;2.25;;;5.80;99.90;;;;;;5092562;28;20224;-74
2021/11/06 05:51:18;;;;;;;2.15;2.05;;;5.80;99.90;;;;;;5092694;28;20221;-75
2021/11/06 05:53:45;;;;;;;1.95;1.42;;;5.80;99.90;;;;;;5092502;28;20194;-76
2021/11/06 05:56:12;;;;;;;5.28;3.25;;;5.80;99.90;;;;;;5092724;28;20194;-75
2021/11/06 05:58:39;;;;;;;2.90;2.13;;;5.80;99.90;;;;;;5092852;28;20189;-76
2021/11/06 06:01:05;;;;;;;5.80;3.83;;;5.80;99.90;;;;;;5092399;28;20214;-75
2021/11/06 06:03:32;;;;;;;6.90;3.65;;;5.80;99.90;;;;;;5092609;28;20200;-76
2021/11/06 06:06:00;;;;;;;15.65;5.13;;;5.80;99.90;;;;;;5092350;28;20516;-75
2021/11/06 06:08:27;;;;;;;4.07;3.58;;;5.80;99.90;;;;;;5092989;28;20229;-76
2021/11/06 06:10:54;;;;;;;5.53;3.92;;;5.80;99.90;;;;;;5092025;28;20214;-76
2021/11/06 06:13:21;;;;;;;5.00;3.40;;;5.80;99.90;;;;;;5092439;28;20204;-76
2021/11/06 06:15:48;;;;;;;5.70;4.00;;;5.90;99.90;;;;;;5092700;28;20191;-76
2021/11/06 06:18:15;;;;;;;4.45;4.03;;;5.90;99.90;;;;;;5092027;28;20194;-76
2021/11/06 06:20:41;;;;;;;6.07;3.95;;;5.90;99.90;;;;;;5092104;28;20618;-75
2021/11/06 06:23:10;;;;;;;1.55;1.42;;;5.90;99.90;;;;;;5092325;28;20197;-77
2021/11/06 06:25:36;;;;;;;3.30;3.10;;;5.90;99.90;;;;;;5092617;28;20193;-72
2021/11/06 06:28:04;;;;;;;2.38;2.17;;;5.90;99.90;;;;;;5092153;28;20236;-76
2021/11/06 06:30:33;;;;;;;5.90;1.63;;;6.00;99.90;;;;;;5091747;28;20260;-76
2021/11/06 06:33:00;;;;;;;4.15;3.72;;;6.00;99.90;;;;;;5092221;28;20284;-74
2021/11/06 06:35:29;;;;;;;1.35;1.25;;;6.10;99.90;;;;;;5092311;28;20202;-75
2021/11/06 06:37:56;;;;;;;1.50;1.50;;;6.10;99.90;;;;;;5091935;28;20667;-76
2021/11/06 06:40:24;;;;;;;6.88;6.18;;;6.20;99.90;;;;;;5091610;28;20249;-75
2021/11/06 06:42:51;;;;;;;3.22;3.03;;;6.20;99.90;;;;;;5092011;28;20196;-76
2021/11/06 06:45:19;;;;;;;1.90;1.80;;;6.30;99.90;;;;;;5092042;28;20742;-75
2021/11/06 06:47:46;;;;;;;9.15;3.83;;;6.30;99.90;;;;;;5091596;28;20217;-76
2021/11/06 06:50:13;;;;;;;5.85;4.32;;;6.30;99.90;;;;;;5091715;28;20214;-75
2021/11/06 06:52:40;;;;;;;7.32;3.55;;;6.30;99.90;;;;;;5091885;28;20288;-75
2021/11/06 06:55:09;;;;;;;1.58;1.48;;;6.30;99.90;;;;;;5091585;28;20193;-75
2021/11/06 06:57:37;;;;;;;4.75;1.92;;;6.20;99.90;;;;;;5091725;28;20206;-75
2021/11/06 07:00:06;;;;;;;1.83;1.17;;;6.30;99.90;;;;;;5091746;28;20221;-73
2021/11/06 07:02:33;;;;;;;3.72;3.42;;;6.30;99.90;;;;;;5091629;28;20204;-71
2021/11/06 07:05:00;;;;;;;2.45;1.65;;;6.30;99.90;;;;;;5091377;28;20200;-75
2021/11/06 07:07:26;;;;;;;5.63;3.75;;;6.30;99.90;;;;;;5091551;28;20563;-75
2021/11/06 07:09:53;;;;;;;5.00;2.15;;;6.40;99.90;;;;;;5091450;28;20216;-75
2021/11/06 07:12:21;;;;;;;3.75;3.00;;;6.40;99.90;;;;;;5091423;28;20655;-75
2021/11/06 07:14:50;;;;;;;2.15;1.40;;;6.40;99.90;;;;;;5091041;28;20193;-75
2021/11/06 07:17:16;;;;;;;1.10;0.82;;;6.50;99.90;;;;;;5091051;28;20229;-75
2021/11/06 07:19:43;;;;;;;3.85;2.47;;;6.50;99.90;;;;;;5091454;28;20197;-75
2021/11/06 07:22:10;;;;;;;5.95;3.22;;;6.60;99.90;;;;;;5091266;28;20212;-75
2021/11/06 07:24:37;;;;;;;2.30;2.15;;;6.60;99.90;;;;;;5091751;28;20197;-73
2021/11/06 07:27:05;;;;;;;12.27;1.50;;;6.80;99.90;;;;;;5091386;28;20200;-75
2021/11/06 07:29:32;;;;;;;53.22;4.97;;;7.30;99.90;;;;;;5091519;28;20267;-75
2021/11/06 07:32:00;;;;;;;4.97;2.95;;;7.60;99.90;;;;;;5091047;28;20202;-75
2021/11/06 07:34:27;;;;;;;4.57;2.28;;;7.50;99.90;;;;;;5091176;28;20189;-75
2021/11/06 07:36:54;;;;;;;1.80;1.70;;;7.30;99.90;;;;;;5091486;28;20197;-75
2021/11/06 07:39:21;;;;;;;18.83;2.92;;;7.20;99.90;;;;;;5092875;28;20189;-75
2021/11/06 07:41:47;;;;;;;1.40;0.65;;;7.00;99.90;;;;;;5092542;28;20710;-75
2021/11/06 07:44:14;;;;;;;5.70;1.70;;;7.10;99.90;;;;;;5091244;28;20198;-75
2021/11/06 07:46:41;;;;;;;2.08;1.92;;;7.20;99.90;;;;;;5091497;28;20220;-75
2021/11/06 07:49:09;;;;;;;1.40;1.30;;;7.20;99.90;;;;;;5090403;28;20217;-75
2021/11/06 07:51:36;;;;;;;2.85;1.65;;;7.30;99.90;;;;;;5091004;28;20213;-75
2021/11/06 07:54:03;;;;;;;2.75;2.55;;;7.30;99.90;;;;;;5091257;28;20194;-75
2021/11/06 07:56:29;;;;;;;10.45;3.50;;;7.40;99.90;;;;;;5091089;28;20197;-73
2021/11/06 07:58:57;;;;;;;3.50;1.85;;;7.30;99.90;;;;;;5090626;28;20189;-75
2021/11/06 08:01:24;;;;;;;1.90;1.80;;;7.30;99.90;;;;;;5091074;28;20263;-75
2021/11/06 08:03:51;;;;;;;1.10;1.02;;;7.20;99.90;;;;;;5090806;28;20200;-75
2021/11/06 08:06:19;;;;;;;3.63;3.38;;;7.20;99.90;;;;;;5091181;28;20206;-75
2021/11/06 08:08:46;;;;;;;2.00;1.80;;;7.30;99.90;;;;;;5090931;28;20230;-75
2021/11/06 08:11:12;;;;;;;0.80;0.80;;;7.30;99.90;;;;;;5090906;28;20224;-75
2021/11/06 08:13:39;;;;;;;0.73;0.73;;;7.50;99.90;;;;;;5091105;28;20198;-75
2021/11/06 08:16:06;;;;;;;1.63;1.45;;;8.20;99.90;;;;;;5091340;28;20565;-75
2021/11/06 08:18:33;;;;;;;4.53;2.10;;;8.70;99.90;;;;;;5090589;28;20190;-74
2021/11/06 08:21:00;;;;;;;0.70;0.50;;;8.40;99.90;;;;;;5090356;28;20214;-76
2021/11/06 08:23:28;;;;;;;4.80;3.53;;;8.20;99.90;;;;;;5091343;28;20225;-75
2021/11/06 08:25:55;;;;;;;14.32;1.70;;;7.90;99.90;;;;;;5090925;28;20198;-75
2021/11/06 08:28:22;;;;;;;1.55;1.45;;;7.70;99.90;;;;;;5092573;28;20603;-75
2021/11/06 08:30:49;;;;;;;6.80;2.60;;;7.60;99.90;;;;;;5094275;28;20215;-75
2021/11/06 08:33:16;;;;;;;2.78;1.40;;;7.50;99.90;;;;;;5094198;28;20293;-75
2021/11/06 08:35:43;;;;;;;1.15;1.15;;;7.60;99.90;;;;;;5094485;28;20204;-76
2021/11/06 08:38:11;;;;;;;2.25;1.35;;;7.90;99.90;;;;;;5094914;28;20201;-75
2021/11/06 08:40:40;;;;;;;1.02;0.93;;;8.00;99.90;;;;;;5093810;28;20638;-75
2021/11/06 08:43:07;;;;;;;2.10;2.00;;;8.10;99.90;;;;;;5094389;28;20194;-75
2021/11/06 08:45:33;;;;;;;1.20;1.15;;;8.10;99.90;;;;;;5094049;28;20198;-75
2021/11/06 08:48:00;;;;;;;3.90;1.45;;;8.10;99.90;;;;;;5093764;28;20207;-76
2021/11/06 08:50:29;;;;;;;2.03;1.17;;;8.00;99.90;;;;;;5093832;28;20218;-75
2021/11/06 08:52:57;;;;;;;1.92;1.83;;;8.00;99.90;;;;;;5094133;28;20253;-76
2021/11/06 08:55:25;;;;;;;5.57;2.47;;;7.90;99.90;;;;;;5093924;28;20316;-75
2021/11/06 08:57:53;;;;;;;2.30;2.10;;;7.90;99.90;;;;;;5093775;28;20272;-75
2021/11/06 09:00:26;;;;;;;1.42;1.33;;;7.90;99.90;;;;;;5093632;28;20336;-75
2021/11/06 09:02:54;;;;;;;1.08;0.75;;;7.90;99.90;;;;;;5093509;28;20636;-76
2021/11/06 09:05:21;;;;;;;2.97;1.58;;;7.90;99.90;;;;;;5093114;28;20195;-76
2021/11/06 09:07:48;;;;;;;1.15;0.95;;;7.90;99.90;;;;;;5093839;28;20194;-75
2021/11/06 09:10:18;;;;;;;0.50;0.40;;;7.90;99.90;;;;;;5092924;28;20215;-75
2021/11/06 09:12:45;;;;;;;1.58;1.48;;;7.90;99.90;;;;;;5093399;28;20194;-76
2021/11/06 09:15:14;;;;;;;4.10;1.85;;;8.00;99.90;;;;;;5093746;28;20651;-75
2021/11/06 09:17:40;;;;;;;2.70;2.53;;;8.10;99.90;;;;;;5093611;28;20202;-73
2021/11/06 09:20:08;;;;;;;0.50;0.50;;;8.00;99.90;;;;;;5092885;28;20209;-74
2021/11/06 09:22:36;;;;;;;2.47;2.28;;;8.00;99.90;;;;;;5093610;28;20234;-73
2021/11/06 09:25:03;;;;;;;2.35;2.15;;;8.00;99.90;;;;;;5093578;28;20210;-75
2021/11/06 09:27:30;;;;;;;0.50;0.40;;;8.00;99.90;;;;;;5093016;28;20206;-75
2021/11/06 09:29:57;;;;;;;2.55;2.08;;;8.20;99.90;;;;;;5092970;28;20276;-75
2021/11/06 09:32:25;;;;;;;0.65;0.65;;;8.10;99.90;;;;;;5093003;28;20646;-75
2021/11/06 09:34:52;;;;;;;3.72;3.42;;;8.20;99.90;;;;;;5093185;28;20195;-75
2021/11/06 09:37:19;;;;;;;2.00;1.88;;;8.30;99.90;;;;;;5092869;28;20199;-75
2021/11/06 09:39:46;;;;;;;2.20;1.73;;;8.30;99.90;;;;;;5091650;28;20263;-75
2021/11/06 09:42:13;;;;;;;1.38;1.27;;;8.40;99.90;;;;;;5093212;28;20194;-75
2021/11/06 09:44:40;;;;;;;1.20;1.20;;;8.50;99.90;;;;;;5093326;28;20225;-74
2021/11/06 09:47:12;;;;;;;2.28;1.85;;;8.50;99.90;;;;;;5092728;28;20657;-75
2021/11/06 09:49:41;;;;;;;0.50;0.50;;;8.70;99.90;;;;;;5092561;28;20204;-76
2021/11/06 09:52:08;;;;;;;1.15;0.95;;;8.80;99.90;;;;;;5092673;28;20198;-76
2021/11/06 09:54:36;;;;;;;1.02;1.02;;;8.90;99.90;;;;;;5093116;28;20202;-75
2021/11/06 09:57:03;;;;;;;0.70;0.52;;;8.90;99.90;;;;;;5092949;28;20223;-75
2021/11/06 09:59:31;;;;;;;2.75;2.50;;;8.90;99.90;;;;;;5092725;28;20294;-72
2021/11/06 10:01:58;;;;;;;1.40;1.30;;;9.20;99.90;;;;;;5092181;28;20807;-75
2021/11/06 10:04:26;;;;;;;1.55;1.48;;;9.30;99.90;;;;;;5092686;28;20283;-75
2021/11/06 10:06:54;;;;;;;0.70;0.70;;;9.50;99.90;;;;;;5092657;28;20196;-75
2021/11/06 10:09:22;;;;;;;1.38;0.93;;;9.60;99.90;;;;;;5092650;28;20221;-75
2021/11/06 10:11:51;;;;;;;3.75;3.15;;;9.60;99.90;;;;;;5092470;28;20230;-75
2021/11/06 10:14:19;;;;;;;0.77;0.77;;;9.50;99.90;;;;;;5092225;28;20707;-75
2021/11/06 10:16:52;;;;;;;6.57;2.22;;;9.50;99.90;;;;;;5092404;28;20199;-75
2021/11/06 10:19:22;;;;;;;6.50;3.03;;;9.50;99.90;;;;;;5092086;28;20199;-76
2021/11/06 10:21:52;;;;;;;2.25;2.15;;;9.50;99.90;;;;;;5092315;28;20223;-75
2021/11/06 10:24:39;;;;;;;1.23;1.02;;;9.50;99.90;;;;;;5092336;28;20594;-76
2021/11/06 10:27:18;;;;;;;1.70;1.60;;;9.60;99.90;;;;;;5091925;28;20203;-75
2021/11/06 10:29:59;;;;;;;0.50;0.40;;;9.90;99.90;;;;;;5092433;28;20223;-76
2021/11/06 10:32:25;;;;;;;1.58;1.48;;;10.10;99.90;;;;;;5091743;28;20707;-75
2021/11/06 10:34:53;;;;;;;0.82;0.68;;;10.40;99.90;;;;;;5092322;28;20404;-75
2021/11/06 10:37:21;;;;;;;1.88;1.17;;;10.80;99.90;;;;;;5091889;28;20203;-76
2021/11/06 10:39:57;;;;;;;0.88;0.88;;;11.60;99.90;;;;;;5091823;28;20690;-75
2021/11/06 10:42:24;;;;;;;0.80;0.80;;;11.70;99.90;;;;;;5092006;28;20183;-75
2021/11/06 10:44:51;;;;;;;3.70;2.10;;;11.80;99.90;;;;;;5091521;28;20216;-76
2021/11/06 10:47:18;;;;;;;1.57;1.13;;;11.50;99.90;;;;;;5091608;28;20195;-74
2021/11/06 10:49:49;;;;;;;2.57;0.93;;;11.20;99.90;;;;;;5091748;28;20470;-75
2021/11/06 10:52:19;;;;;;;0.50;0.40;;;11.50;99.90;;;;;;5091818;28;20431;-75
2021/11/06 10:55:07;;;;;;;5.18;2.55;;;11.90;99.90;;;;;;5091623;28;20543;-75
2021/11/06 10:57:35;;;;;;;2.60;2.47;;;12.40;99.90;;;;;;5091677;28;20224;-76
2021/11/06 11:00:13;;;;;;;0.83;0.83;;;12.40;99.90;;;;;;5091689;28;20221;-74
2021/11/06 11:02:40;;;;;;;3.13;1.27;;;12.30;99.90;;;;;;5091619;28;20439;-76
2021/11/06 11:05:30;;;;;;;0.60;0.50;;;12.10;99.90;;;;;;5091931;28;20802;-76
2021/11/06 11:08:05;;;;;;;0.80;0.63;;;11.60;99.90;;;;;;5091402;28;20828;-76
2021/11/06 11:10:33;;;;;;;2.05;1.13;;;11.20;99.90;;;;;;5091051;28;20486;-71
2021/11/06 11:13:11;;;;;;;3.72;2.35;;;11.20;99.90;;;;;;5091781;28;20204;-75
2021/11/06 11:15:39;;;;;;;0.60;0.57;;;10.90;99.90;;;;;;5091247;28;20197;-75
2021/11/06 11:18:05;;;;;;;0.50;0.40;;;10.90;99.90;;;;;;5091018;28;20450;-76
2021/11/06 11:20:38;;;;;;;1.07;0.97;;;10.90;99.90;;;;;;5090871;28;20216;-73
2021/11/06 11:23:10;;;;;;;1.03;0.93;;;11.00;99.90;;;;;;5091785;28;20904;-75
2021/11/06 11:25:40;;;;;;;0.88;0.55;;;11.10;99.90;;;;;;5091146;28;20439;-75
2021/11/06 11:28:08;;;;;;;0.80;0.80;;;11.00;99.90;;;;;;5091817;28;20193;-75
2021/11/06 11:30:35;;;;;;;2.38;1.63;;;11.00;99.90;;;;;;5090972;28;20235;-75
2021/11/06 11:33:02;;;;;;;1.33;1.23;;;10.90;99.90;;;;;;5091093;28;20396;-75
2021/11/06 11:35:30;;;;;;;1.07;0.90;;;10.90;99.90;;;;;;5091477;28;20431;-76
2021/11/06 11:37:59;;;;;;;2.97;1.30;;;10.90;99.90;;;;;;5091090;28;20461;-73
2021/11/06 11:40:29;;;;;;;1.38;1.10;;;11.20;99.90;;;;;;5090745;28;20236;-75
2021/11/06 11:43:06;;;;;;;0.50;0.43;;;11.60;99.90;;;;;;5091658;28;20283;-76
2021/11/06 11:45:39;;;;;;;3.40;1.33;;;12.10;99.90;;;;;;5142977;22;20483;-84
2021/11/06 11:48:11;;;;;;;0.50;0.40;;;12.20;99.90;;;;;;5082481;28;20433;-84
2021/11/06 11:50:42;;;;;;;1.23;1.10;;;12.40;99.90;;;;;;5091707;28;20471;-85
2021/11/06 11:53:12;;;;;;;1.73;1.53;;;12.40;99.90;;;;;;5096238;28;20440;-82
2021/11/06 11:55:42;;;;;;;5.07;0.70;;;12.40;99.90;;;;;;5096350;28;20510;-84
2021/11/06 11:58:18;;;;;;;1.10;1.00;;;12.30;99.90;;;;;;5097162;28;20497;-85
2021/11/06 12:00:48;;;;;;;0.60;0.40;;;11.70;99.90;;;;;;5096103;28;20979;-83
2021/11/06 12:03:36;;;;;;;4.40;1.57;;;11.80;99.90;;;;;;5097297;28;20442;-85
2021/11/06 12:06:21;;;;;;;2.05;0.90;;;11.80;99.90;;;;;;5100806;28;20554;-85
2021/11/06 12:08:48;;;;;;;0.80;0.70;;;12.00;99.90;;;;;;5100441;28;20194;-84
2021/11/06 12:11:19;;;;;;;2.08;1.02;;;12.00;99.90;;;;;;5099748;28;20221;-85
2021/11/06 12:13:51;;;;;;;2.10;1.07;;;11.70;99.90;;;;;;5100539;28;20220;-84
2021/11/06 12:16:20;;;;;;;1.07;0.90;;;11.60;99.90;;;;;;5099664;28;20462;-84
2021/11/06 12:18:58;;;;;;;0.60;0.50;;;11.60;99.90;;;;;;5099717;28;20500;-83
2021/11/06 12:21:34;;;;;;;0.82;0.50;;;11.60;99.90;;;;;;5099261;28;20207;-83
2021/11/06 12:24:21;;;;;;;0.80;0.80;;;11.80;99.90;;;;;;5100112;28;20193;-81
2021/11/06 12:26:49;;;;;;;0.50;0.40;;;12.00;99.90;;;;;;5099844;28;20971;-85
2021/11/06 12:29:28;;;;;;;0.77;0.77;;;12.00;99.90;;;;;;5099829;28;20438;-85
2021/11/06 12:31:57;;;;;;;0.60;0.50;;;12.00;99.90;;;;;;5099637;28;20199;-85
2021/11/06 12:34:35;;;;;;;0.75;0.60;;;11.90;99.90;;;;;;5100942;28;20438;-84
2021/11/06 12:37:06;;;;;;;0.70;0.70;;;11.90;99.90;;;;;;5101406;28;20220;-85
2021/11/06 12:39:48;;;;;;;0.60;0.60;;;11.90;99.90;;;;;;5100354;28;20259;-81
2021/11/06 12:42:17;;;;;;;0.75;0.75;;;11.80;99.90;;;;;;5099466;28;20589;-82
2021/11/06 12:44:54;;;;;;;0.60;0.60;;;11.80;99.90;;;;;;5100142;28;20193;-84
2021/11/06 12:47:22;;;;;;;0.70;0.70;;;11.80;99.90;;;;;;5100121;28;20588;-84
2021/11/06 12:49:50;;;;;;;0.67;0.60;;;11.90;99.90;;;;;;5098931;28;20516;-82
2021/11/06 12:52:19;;;;;;;1.53;1.33;;;11.90;99.90;;;;;;5098688;28;20810;-82
2021/11/06 12:54:48;;;;;;;2.00;1.60;;;12.00;99.90;;;;;;5099356;28;20447;-82
2021/11/06 12:57:30;;;;;;;0.60;0.40;;;12.20;99.90;;;;;;5099897;28;20436;-83
2021/11/06 12:59:58;;;;;;;0.50;0.40;;;12.30;99.90;;;;;;5099695;28;20890;-85